createdAt,value
2018-07-14T00:00:49.586Z,17.30
2018-07-14T00:03:21.838Z,17.40
2018-07-14T00:05:53.929Z,17.30
2018-07-14T00:08:25.845Z,17.60
2018-07-14T00:10:57.902Z,17.60
2018-07-14T00:13:29.968Z,17.40
2018-07-14T00:16:01.860Z,17.30
2018-07-14T00:18:33.796Z,17.20
2018-07-14T00:21:05.806Z,17.10
2018-07-14T00:23:37.702Z,16.90
2018-07-14T00:26:09.685Z,17.10
2018-07-14T00:28:41.558Z,17.10
2018-07-14T00:31:13.460Z,17.00
2018-07-14T00:33:45.260Z,17.40
2018-07-14T00:36:17.820Z,17.40
2018-07-14T00:38:49.749Z,17.40
2018-07-14T00:41:21.663Z,17.30
2018-07-14T00:46:24.757Z,16.40
2018-07-14T00:48:56.632Z,16.30
2018-07-14T00:51:29.503Z,16.40
2018-07-14T00:54:01.263Z,16.60
2018-07-14T00:56:33.272Z,16.50
2018-07-14T00:59:05.245Z,16.50
2018-07-14T01:01:37.838Z,16.40
2018-07-14T01:04:09.809Z,16.70
2018-07-14T01:06:41.716Z,16.60
2018-07-14T01:09:13.522Z,16.60
2018-07-14T01:11:45.511Z,16.30
2018-07-14T01:14:17.517Z,16.40
2018-07-14T01:16:49.503Z,16.30
2018-07-14T01:19:21.400Z,16.30
2018-07-14T01:21:53.246Z,16.10
2018-07-14T01:24:25.165Z,16.30
2018-07-14T01:26:57.249Z,16.00
2018-07-14T01:29:29.102Z,16.20
2018-07-14T01:32:01.007Z,15.90
2018-07-14T01:34:32.939Z,15.90
2018-07-14T01:39:36.449Z,16.20
2018-07-14T01:44:39.596Z,16.40
2018-07-14T01:47:11.675Z,16.70
2018-07-14T01:49:43.575Z,17.10
2018-07-14T01:52:15.496Z,16.80
2018-07-14T01:54:47.259Z,16.90
2018-07-14T01:57:19.128Z,16.80
2018-07-14T01:59:50.993Z,16.50
2018-07-14T02:02:22.916Z,16.10
2018-07-14T02:04:54.903Z,16.50
2018-07-14T02:07:26.688Z,16.10
2018-07-14T02:09:58.431Z,16.00
2018-07-14T02:15:01.592Z,15.80
2018-07-14T02:20:04.742Z,15.80
2018-07-14T02:22:36.541Z,16.00
2018-07-14T02:25:08.243Z,16.10
2018-07-14T02:27:40.066Z,16.30
2018-07-14T02:30:11.883Z,16.50
2018-07-14T02:35:15.009Z,16.60
2018-07-14T02:37:47.076Z,16.90
2018-07-14T02:40:19.207Z,16.90
2018-07-14T02:42:51.141Z,16.90
2018-07-14T02:45:22.861Z,16.90
2018-07-14T02:47:55.012Z,16.90
2018-07-14T02:50:26.768Z,16.70
2018-07-14T02:52:59.034Z,16.50
2018-07-14T02:55:30.781Z,15.80
2018-07-14T02:58:02.678Z,15.70
2018-07-14T03:00:34.524Z,15.90
2018-07-14T03:05:38.248Z,16.00
2018-07-14T03:08:10.154Z,16.10
2018-07-14T03:10:41.908Z,16.30
2018-07-14T03:13:13.888Z,16.20
2018-07-14T03:15:45.673Z,16.00
2018-07-14T03:20:48.746Z,16.00
2018-07-14T03:23:20.968Z,16.10
2018-07-14T03:25:53.300Z,16.00
2018-07-14T03:28:25.325Z,16.40
2018-07-14T03:30:57.083Z,16.60
2018-07-14T03:33:29.097Z,16.80
2018-07-14T03:36:07.518Z,16.50
2018-07-14T03:38:39.494Z,16.30
2018-07-14T03:41:11.338Z,16.20
2018-07-14T03:43:43.308Z,16.00
2018-07-14T03:46:14.997Z,16.00
2018-07-14T03:48:47.280Z,16.00
2018-07-14T03:51:19.128Z,16.20
2018-07-14T03:53:50.958Z,15.80
2018-07-14T03:56:22.798Z,15.80
2018-07-14T03:58:54.518Z,16.00
2018-07-14T04:01:29.529Z,16.00
2018-07-14T04:04:01.622Z,16.00
2018-07-14T04:06:33.784Z,16.00
2018-07-14T04:09:06.927Z,16.00
2018-07-14T04:11:39.110Z,16.00
2018-07-14T04:14:11.496Z,15.80
2018-07-14T04:16:43.696Z,15.80
2018-07-14T04:19:15.881Z,15.70
2018-07-14T04:21:48.126Z,15.60
2018-07-14T04:24:20.521Z,15.80
2018-07-14T04:26:52.813Z,15.90
2018-07-14T04:31:56.730Z,15.90
2018-07-14T04:34:28.861Z,15.80
2018-07-14T04:37:00.640Z,16.10
2018-07-14T04:39:32.392Z,15.70
2018-07-14T04:42:04.160Z,15.50
2018-07-14T04:44:35.989Z,15.70
2018-07-14T04:47:07.721Z,15.70
2018-07-14T04:49:39.481Z,15.70
2018-07-14T04:52:11.257Z,15.60
2018-07-14T04:54:43.001Z,15.70
2018-07-14T04:57:15.217Z,15.70
2018-07-14T04:59:47.028Z,15.70
2018-07-14T05:02:18.915Z,15.90
2018-07-14T05:04:50.911Z,16.10
2018-07-14T05:09:54.076Z,16.00
2018-07-14T05:12:25.857Z,15.80
2018-07-14T05:14:57.808Z,15.80
2018-07-14T05:17:29.530Z,15.70
2018-07-14T05:20:01.357Z,15.90
2018-07-14T05:22:33.197Z,16.10
2018-07-14T05:25:05.513Z,16.00
2018-07-14T05:27:37.226Z,16.10
2018-07-14T05:30:09.027Z,15.90
2018-07-14T05:32:40.761Z,15.90
2018-07-14T05:35:12.718Z,15.90
2018-07-14T05:37:44.470Z,16.10
2018-07-14T05:40:16.439Z,16.10
2018-07-14T05:42:48.265Z,16.10
2018-07-14T05:45:20.097Z,16.00
2018-07-14T05:47:52.246Z,16.10
2018-07-14T05:50:24.126Z,16.10
2018-07-14T05:52:55.982Z,16.30
2018-07-14T05:55:28.064Z,16.50
2018-07-14T05:57:59.828Z,16.50
2018-07-14T06:00:31.787Z,16.60
2018-07-14T06:05:35.190Z,16.70
2018-07-14T06:08:07.113Z,16.70
2018-07-14T06:10:39.374Z,16.50
2018-07-14T06:13:11.254Z,16.60
2018-07-14T06:18:14.317Z,16.70
2018-07-14T06:20:46.220Z,16.60
2018-07-14T06:23:18.149Z,16.60
2018-07-14T06:25:50.568Z,16.70
2018-07-14T06:28:22.415Z,16.60
2018-07-14T06:30:54.320Z,16.50
2018-07-14T06:33:26.295Z,16.50
2018-07-14T06:35:58.171Z,16.40
2018-07-14T06:38:30.243Z,16.60
2018-07-14T06:41:02.196Z,16.50
2018-07-14T06:43:34.690Z,17.00
2018-07-14T06:46:07.518Z,17.40
2018-07-14T06:48:39.371Z,17.30
2018-07-14T06:51:11.330Z,17.30
2018-07-14T06:53:43.236Z,17.30
2018-07-14T06:56:15.136Z,17.30
2018-07-14T06:58:46.993Z,17.40
2018-07-14T07:03:50.941Z,17.60
2018-07-14T07:06:23.208Z,17.50
2018-07-14T07:08:55.233Z,17.20
2018-07-14T07:11:27.199Z,17.30
2018-07-14T07:13:59.047Z,17.10
2018-07-14T07:16:31.002Z,17.10
2018-07-14T07:19:02.859Z,17.10
2018-07-14T07:21:34.727Z,17.50
2018-07-14T07:24:06.639Z,17.60
2018-07-14T07:26:38.660Z,17.50
2018-07-14T07:29:10.594Z,17.40
2018-07-14T07:31:42.711Z,17.50
2018-07-14T07:34:14.728Z,18.00
2018-07-14T07:36:46.896Z,18.10
2018-07-14T07:39:18.845Z,18.10
2018-07-14T07:41:51.601Z,18.10
2018-07-14T07:44:23.484Z,18.00
2018-07-14T07:46:55.304Z,17.70
2018-07-14T07:49:27.963Z,17.80
2018-07-14T07:52:00.309Z,18.20
2018-07-14T07:54:32.172Z,18.50
2018-07-14T07:57:04.304Z,18.30
2018-07-14T07:59:36.143Z,18.30
2018-07-14T08:02:09.307Z,18.80
2018-07-14T08:04:41.538Z,18.80
2018-07-14T08:07:13.508Z,19.00
2018-07-14T08:09:45.465Z,19.20
2018-07-14T08:12:17.809Z,19.30
2018-07-14T08:14:50.622Z,19.40
2018-07-14T08:17:23.171Z,19.50
2018-07-14T08:19:55.021Z,19.40
2018-07-14T08:22:26.968Z,19.40
2018-07-14T08:24:58.786Z,19.60
2018-07-14T08:27:30.613Z,19.80
2018-07-14T08:30:02.416Z,19.90
2018-07-14T08:32:34.419Z,20.10
2018-07-14T08:35:06.286Z,20.20
2018-07-14T08:37:38.177Z,20.30
2018-07-14T08:40:10.173Z,20.20
2018-07-14T08:42:42.497Z,20.30
2018-07-14T08:45:14.281Z,20.40
2018-07-14T08:47:46.450Z,20.60
2018-07-14T08:50:18.294Z,20.60
2018-07-14T08:52:50.096Z,20.80
2018-07-14T08:55:21.866Z,20.90
2018-07-14T08:57:54.025Z,21.00
2018-07-14T09:00:25.753Z,21.10
2018-07-14T09:02:57.571Z,21.20
2018-07-14T09:05:29.487Z,21.30
2018-07-14T09:08:01.515Z,21.50
2018-07-14T09:10:33.427Z,21.70
2018-07-14T09:13:05.229Z,21.70
2018-07-14T09:15:36.976Z,21.70
2018-07-14T09:18:08.804Z,21.70
2018-07-14T09:20:41.003Z,21.90
2018-07-14T09:23:13.031Z,22.00
2018-07-14T09:25:46.146Z,22.20
2018-07-14T09:28:18.537Z,22.50
2018-07-14T09:30:50.562Z,22.60
2018-07-14T09:33:22.603Z,22.60
2018-07-14T09:35:54.342Z,22.80
2018-07-14T09:40:57.402Z,22.70
2018-07-14T09:43:29.245Z,22.90
2018-07-14T09:46:01.114Z,23.20
2018-07-14T09:48:33.477Z,23.30
2018-07-14T09:51:05.464Z,23.30
2018-07-14T09:53:37.463Z,23.50
2018-07-14T09:56:09.267Z,23.70
2018-07-14T09:58:41.105Z,23.90
2018-07-14T10:01:12.949Z,24.00
2018-07-14T10:03:44.832Z,23.90
2018-07-14T10:06:16.736Z,24.00
2018-07-14T10:08:48.651Z,24.00
2018-07-14T10:11:20.594Z,24.10
2018-07-14T10:13:52.538Z,23.80
2018-07-14T10:16:24.696Z,23.70
2018-07-14T10:18:56.636Z,23.60
2018-07-14T10:21:28.726Z,23.80
2018-07-14T10:24:00.597Z,23.70
2018-07-14T10:26:32.685Z,24.00
2018-07-14T10:31:41.351Z,25.00
2018-07-14T10:34:13.262Z,25.20
2018-07-14T10:36:44.984Z,24.80
2018-07-14T10:39:16.885Z,24.90
2018-07-14T10:41:48.760Z,25.20
2018-07-14T10:46:51.752Z,24.70
2018-07-14T10:49:23.569Z,24.10
2018-07-14T10:51:55.584Z,24.30
2018-07-14T10:54:27.496Z,24.60
2018-07-14T10:56:59.496Z,24.60
2018-07-14T10:59:31.685Z,24.40
2018-07-14T11:02:03.962Z,24.30
2018-07-14T11:04:36.736Z,24.30
2018-07-14T11:07:10.020Z,24.70
2018-07-14T11:09:42.018Z,25.40
2018-07-14T11:12:14.050Z,25.40
2018-07-14T11:14:48.222Z,25.90
2018-07-14T11:17:20.166Z,25.80
2018-07-14T11:19:52.195Z,26.20
2018-07-14T11:22:24.196Z,26.00
2018-07-14T11:24:56.121Z,26.20
2018-07-14T11:27:28.273Z,26.00
2018-07-14T11:30:00.261Z,25.80
2018-07-14T11:32:32.317Z,25.30
2018-07-14T11:35:04.233Z,25.20
2018-07-14T11:37:36.214Z,24.90
2018-07-14T11:40:08.045Z,25.20
2018-07-14T11:42:40.878Z,25.10
2018-07-14T11:45:13.057Z,25.00
2018-07-14T11:47:44.977Z,24.90
2018-07-14T11:50:16.861Z,24.60
2018-07-14T11:52:49.016Z,24.60
2018-07-14T11:55:20.955Z,24.60
2018-07-14T11:57:53.390Z,24.70
2018-07-14T12:00:25.372Z,25.10
2018-07-14T12:02:57.444Z,25.00
2018-07-14T12:05:29.345Z,24.90
2018-07-14T12:08:01.306Z,25.10
2018-07-14T12:10:33.155Z,25.60
2018-07-14T12:13:04.844Z,26.20
2018-07-14T12:15:37.455Z,25.90
2018-07-14T12:18:09.477Z,25.60
2018-07-14T12:20:41.838Z,25.10
2018-07-14T12:23:13.669Z,24.70
2018-07-14T12:25:45.788Z,24.50
2018-07-14T12:28:17.509Z,24.40
2018-07-14T12:30:49.369Z,24.40
2018-07-14T12:33:21.143Z,24.50
2018-07-14T12:35:52.916Z,24.40
2018-07-14T12:38:24.650Z,24.40
2018-07-14T12:40:56.409Z,24.40
2018-07-14T12:43:28.235Z,24.30
2018-07-14T12:46:00.079Z,24.20
2018-07-14T12:48:31.777Z,24.00
2018-07-14T12:51:03.642Z,24.00
2018-07-14T12:53:35.425Z,24.00
2018-07-14T12:56:07.240Z,23.70
2018-07-14T12:58:38.933Z,24.50
2018-07-14T13:01:10.760Z,25.80
2018-07-14T13:03:42.616Z,26.70
2018-07-14T13:11:17.390Z,27.20
2018-07-14T13:13:49.772Z,26.30
2018-07-14T13:16:21.747Z,25.90
2018-07-14T13:18:54.669Z,25.60
2018-07-14T13:21:26.573Z,25.30
2018-07-14T13:23:58.454Z,25.30
2018-07-14T13:26:30.469Z,25.20
2018-07-14T13:29:02.249Z,25.40
2018-07-14T13:31:34.125Z,25.60
2018-07-14T13:34:06.836Z,26.20
2018-07-14T13:36:38.813Z,26.20
2018-07-14T13:39:10.554Z,27.10
2018-07-14T13:44:13.676Z,27.70
2018-07-14T13:46:45.570Z,28.10
2018-07-14T13:49:17.749Z,28.30
2018-07-14T13:51:49.589Z,28.10
2018-07-14T13:54:21.386Z,27.90
2018-07-14T13:56:53.481Z,27.10
2018-07-14T13:59:26.013Z,27.50
2018-07-14T14:01:58.033Z,27.20
2018-07-14T14:04:29.752Z,26.90
2018-07-14T14:07:01.537Z,26.30
2018-07-14T14:12:04.782Z,25.80
2018-07-14T14:14:37.065Z,25.60
2018-07-14T14:17:09.255Z,25.20
2018-07-14T14:19:41.280Z,25.10
2018-07-14T14:22:13.480Z,25.20
2018-07-14T14:24:45.614Z,24.90
2018-07-14T14:29:49.060Z,24.50
2018-07-14T14:32:20.953Z,24.40
2018-07-14T14:34:52.852Z,24.40
2018-07-14T14:37:24.765Z,24.40
2018-07-14T14:39:56.569Z,24.20
2018-07-14T14:42:28.462Z,23.40
2018-07-14T14:45:00.219Z,22.20
2018-07-14T14:47:32.030Z,22.10
2018-07-14T14:50:03.745Z,21.30
2018-07-14T14:52:35.528Z,21.50
2018-07-14T14:55:07.484Z,22.30
2018-07-14T14:57:39.329Z,22.10
2018-07-14T15:00:11.118Z,21.60
2018-07-14T15:02:43.183Z,22.00
2018-07-14T15:05:15.050Z,23.00
2018-07-14T15:07:46.858Z,24.10
2018-07-14T15:10:18.779Z,24.10
2018-07-14T15:12:50.704Z,24.70
2018-07-14T15:15:23.314Z,25.20
2018-07-14T15:17:55.160Z,25.70
2018-07-14T15:20:26.965Z,26.20
2018-07-14T15:22:59.306Z,26.50
2018-07-14T15:25:31.069Z,27.10
2018-07-14T15:28:02.852Z,27.40
2018-07-14T15:30:34.662Z,27.00
2018-07-14T15:33:06.653Z,27.00
2018-07-14T15:35:38.746Z,27.30
2018-07-14T15:40:47.378Z,27.60
2018-07-14T15:43:22.811Z,27.70
2018-07-14T15:45:56.744Z,27.50
2018-07-14T15:48:29.765Z,26.70
2018-07-14T15:51:01.966Z,26.80
2018-07-14T15:53:34.371Z,26.70
2018-07-14T15:56:07.745Z,27.70
2018-07-14T15:58:40.164Z,28.00
2018-07-14T16:01:12.874Z,28.30
2018-07-14T16:03:44.621Z,28.30
2018-07-14T16:06:16.497Z,28.40
2018-07-14T16:08:48.425Z,28.10
2018-07-14T16:11:20.146Z,28.60
2018-07-14T16:13:52.283Z,28.30
2018-07-14T16:16:24.084Z,26.90
2018-07-14T16:18:56.065Z,26.30
2018-07-14T16:21:27.925Z,25.80
2018-07-14T16:23:59.670Z,25.20
2018-07-14T16:26:31.603Z,25.80
2018-07-14T16:29:04.357Z,26.70
2018-07-14T16:31:36.110Z,27.70
2018-07-14T16:34:08.019Z,27.70
2018-07-14T16:36:39.850Z,27.00
2018-07-14T16:39:11.686Z,27.10
2018-07-14T16:41:43.510Z,27.70
2018-07-14T16:44:15.365Z,28.30
2018-07-14T16:46:47.340Z,28.30
2018-07-14T16:49:19.202Z,27.10
2018-07-14T16:51:51.980Z,27.00
2018-07-14T16:54:23.739Z,26.40
2018-07-14T16:56:56.655Z,27.40
2018-07-14T16:59:28.912Z,28.00
2018-07-14T17:02:01.205Z,28.20
2018-07-14T17:04:33.124Z,28.00
2018-07-14T17:07:05.402Z,28.00
2018-07-14T17:09:37.215Z,27.30
2018-07-14T17:12:10.301Z,26.60
2018-07-14T17:14:42.259Z,26.00
2018-07-14T17:17:14.344Z,25.20
2018-07-14T17:19:46.232Z,24.60
2018-07-14T17:22:17.922Z,23.90
2018-07-14T17:24:49.722Z,24.00
2018-07-14T17:27:21.562Z,24.20
2018-07-14T17:29:53.467Z,24.30
2018-07-14T17:32:25.206Z,24.30
2018-07-14T17:34:56.980Z,24.90
2018-07-14T17:37:28.722Z,24.90
2018-07-14T17:40:01.274Z,24.60
2018-07-14T17:42:33.110Z,24.00
2018-07-14T17:45:05.527Z,24.00
2018-07-14T17:47:37.546Z,23.60
2018-07-14T17:50:09.620Z,23.50
2018-07-14T17:52:41.726Z,23.60
2018-07-14T17:55:13.655Z,23.40
2018-07-14T17:57:46.202Z,23.20
2018-07-14T18:00:18.357Z,23.30
2018-07-14T18:02:50.847Z,23.10
2018-07-14T18:05:22.790Z,22.90
2018-07-14T18:07:54.579Z,22.90
2018-07-14T18:10:26.365Z,22.70
2018-07-14T18:12:58.312Z,22.80
